createdAt,value
2018-12-19T00:00:34.487Z,57.80
2018-12-19T00:03:01.973Z,58.30
2018-12-19T00:05:29.440Z,58.20
2018-12-19T00:07:57.020Z,58.20
2018-12-19T00:10:24.487Z,58.60
2018-12-19T00:12:52.036Z,58.50
2018-12-19T00:15:19.631Z,58.70
2018-12-19T00:17:47.104Z,59.50
2018-12-19T00:20:14.557Z,58.40
2018-12-19T00:22:42.063Z,58.70
2018-12-19T00:25:09.661Z,58.60
2018-12-19T00:27:37.712Z,58.70
2018-12-19T00:30:06.125Z,58.60
2018-12-19T00:32:33.753Z,58.60
2018-12-19T00:35:01.254Z,58.30
2018-12-19T00:37:28.724Z,58.90
2018-12-19T00:39:56.251Z,58.70
2018-12-19T00:42:23.741Z,58.30
2018-12-19T00:44:51.204Z,58.30
2018-12-19T00:47:18.693Z,58.50
2018-12-19T00:49:46.260Z,59.20
2018-12-19T00:52:13.733Z,58.70
2018-12-19T00:54:41.285Z,59.00
2018-12-19T00:57:08.790Z,58.70
2018-12-19T00:59:36.377Z,59.20
2018-12-19T01:02:04.022Z,59.80
2018-12-19T01:04:31.472Z,58.80
2018-12-19T01:06:58.978Z,59.00
2018-12-19T01:09:26.473Z,58.90
2018-12-19T01:11:53.958Z,59.00
2018-12-19T01:14:21.609Z,59.00
2018-12-19T01:16:49.130Z,59.40
2018-12-19T01:19:16.642Z,59.50
2018-12-19T01:21:44.193Z,59.40
2018-12-19T01:24:11.877Z,59.30
2018-12-19T01:26:39.395Z,59.40
2018-12-19T01:29:06.946Z,59.20
2018-12-19T01:31:34.807Z,59.10
2018-12-19T01:34:02.503Z,59.40
2018-12-19T01:36:29.990Z,59.60
2018-12-19T01:38:57.538Z,59.50
2018-12-19T01:41:25.084Z,59.70
2018-12-19T01:43:52.552Z,59.40
2018-12-19T01:46:20.014Z,59.40
2018-12-19T01:48:47.499Z,59.50
2018-12-19T01:51:15.027Z,59.30
2018-12-19T01:53:42.753Z,59.20
2018-12-19T01:56:10.231Z,58.70
2018-12-19T01:58:37.818Z,58.50
2018-12-19T02:01:05.349Z,58.60
2018-12-19T02:03:32.819Z,58.60
2018-12-19T02:06:00.275Z,58.60
2018-12-19T02:08:27.748Z,58.90
2018-12-19T02:10:55.209Z,58.60
2018-12-19T02:13:25.495Z,58.60
2018-12-19T02:15:53.045Z,58.60
2018-12-19T02:18:20.604Z,58.60
2018-12-19T02:20:48.063Z,58.70
2018-12-19T02:23:15.552Z,58.70
2018-12-19T02:25:43.036Z,58.60
2018-12-19T02:28:10.727Z,58.60
2018-12-19T02:30:38.218Z,59.00
2018-12-19T02:33:05.763Z,58.80
2018-12-19T02:35:33.229Z,58.60
2018-12-19T02:38:00.839Z,58.80
2018-12-19T02:40:28.351Z,59.00
2018-12-19T02:42:55.930Z,58.70
2018-12-19T02:45:23.399Z,59.00
2018-12-19T02:47:50.855Z,58.50
2018-12-19T02:50:18.363Z,58.50
2018-12-19T02:52:45.820Z,58.90
2018-12-19T02:55:13.339Z,58.60
2018-12-19T02:57:40.862Z,58.90
2018-12-19T03:00:08.535Z,59.60
2018-12-19T03:02:36.035Z,59.00
2018-12-19T03:05:04.223Z,58.90
2018-12-19T03:07:31.692Z,58.90
2018-12-19T03:09:59.239Z,58.60
2018-12-19T03:12:26.756Z,58.70
2018-12-19T03:14:54.273Z,59.60
2018-12-19T03:17:21.806Z,59.10
2018-12-19T03:19:49.370Z,59.30
2018-12-19T03:22:16.861Z,59.60
2018-12-19T03:24:44.653Z,59.20
2018-12-19T03:27:12.149Z,59.90
2018-12-19T03:29:39.634Z,59.30
2018-12-19T03:32:07.109Z,59.40
2018-12-19T03:34:34.659Z,59.10
2018-12-19T03:37:02.130Z,58.70
2018-12-19T03:39:29.718Z,58.60
2018-12-19T03:41:57.246Z,58.90
2018-12-19T03:44:30.873Z,58.60
2018-12-19T03:46:58.603Z,58.60
2018-12-19T03:49:26.369Z,58.80
2018-12-19T03:51:53.884Z,58.20
2018-12-19T03:54:21.709Z,58.70
2018-12-19T03:56:49.726Z,58.30
2018-12-19T03:59:17.362Z,58.20
2018-12-19T04:01:44.930Z,58.30
2018-12-19T04:04:12.400Z,58.60
2018-12-19T04:06:39.975Z,58.50
2018-12-19T04:09:07.461Z,59.00
2018-12-19T04:11:35.008Z,59.00
2018-12-19T04:14:02.531Z,58.70
2018-12-19T04:16:30.037Z,59.10
2018-12-19T04:18:57.526Z,58.70
2018-12-19T04:21:25.007Z,58.80
2018-12-19T04:23:52.489Z,58.80
2018-12-19T04:26:19.990Z,59.20
2018-12-19T04:28:47.486Z,58.80
2018-12-19T04:31:14.971Z,58.80
2018-12-19T04:33:42.433Z,59.20
2018-12-19T04:36:10.062Z,59.40
2018-12-19T04:38:38.016Z,59.20
2018-12-19T04:41:05.526Z,59.30
2018-12-19T04:43:33.050Z,60.50
2018-12-19T04:46:00.541Z,60.00
2018-12-19T04:48:28.019Z,60.00
2018-12-19T04:50:55.487Z,60.20
2018-12-19T04:53:22.976Z,59.60
2018-12-19T04:55:50.745Z,59.90
2018-12-19T04:58:18.261Z,59.40
2018-12-19T05:00:45.778Z,59.30
2018-12-19T05:03:13.270Z,59.60
2018-12-19T05:05:40.829Z,59.30
2018-12-19T05:08:08.410Z,59.30
2018-12-19T05:10:35.890Z,59.40
2018-12-19T05:13:03.560Z,59.50
2018-12-19T05:15:31.036Z,59.50
2018-12-19T05:17:58.507Z,59.10
2018-12-19T05:20:25.969Z,59.30
2018-12-19T05:22:53.967Z,59.50
2018-12-19T05:25:21.441Z,60.00
2018-12-19T05:27:48.980Z,59.70
2018-12-19T05:30:16.519Z,60.30
2018-12-19T05:32:44.038Z,60.30
2018-12-19T05:35:11.512Z,59.80
2018-12-19T05:37:39.026Z,59.60
2018-12-19T05:40:07.345Z,59.80
2018-12-19T05:42:35.368Z,59.30
2018-12-19T05:45:05.769Z,59.10
2018-12-19T05:47:33.298Z,59.20
2018-12-19T05:50:01.036Z,58.90
2018-12-19T05:52:28.918Z,59.00
2018-12-19T05:54:56.696Z,59.30
2018-12-19T05:57:24.358Z,59.00
2018-12-19T05:59:51.814Z,59.20
2018-12-19T06:02:19.301Z,59.70
2018-12-19T06:04:46.809Z,59.60
2018-12-19T06:07:14.393Z,59.80
2018-12-19T06:09:41.856Z,59.20
2018-12-19T06:12:09.345Z,59.40
2018-12-19T06:14:37.750Z,60.00
2018-12-19T06:17:05.310Z,59.70
2018-12-19T06:19:32.873Z,59.80
2018-12-19T06:22:00.697Z,60.00
2018-12-19T06:24:28.174Z,60.00
2018-12-19T06:26:55.748Z,60.60
2018-12-19T06:29:23.206Z,60.60
2018-12-19T06:31:50.702Z,60.50
2018-12-19T06:34:18.199Z,60.60
2018-12-19T06:36:45.774Z,60.40
2018-12-19T06:39:13.525Z,60.20
2018-12-19T06:41:41.079Z,59.90
2018-12-19T06:44:08.582Z,59.90
2018-12-19T06:46:36.038Z,59.90
2018-12-19T06:49:03.531Z,60.80
2018-12-19T06:51:31.051Z,60.30
2018-12-19T06:53:58.533Z,60.50
2018-12-19T06:56:26.035Z,60.50
2018-12-19T06:58:53.514Z,60.40
2018-12-19T07:01:20.970Z,60.40
2018-12-19T07:03:51.934Z,60.70
2018-12-19T07:06:19.623Z,60.40
2018-12-19T07:08:47.104Z,60.80
2018-12-19T07:11:14.780Z,60.70
2018-12-19T07:13:42.380Z,60.40
2018-12-19T07:16:09.938Z,60.90
2018-12-19T07:18:37.408Z,60.80
2018-12-19T07:21:05.004Z,60.40
2018-12-19T07:23:32.534Z,60.30
2018-12-19T07:25:59.989Z,60.50
2018-12-19T07:28:27.561Z,60.00
2018-12-19T07:30:55.034Z,60.10
2018-12-19T07:33:22.510Z,60.20
2018-12-19T07:35:50.055Z,59.70
2018-12-19T07:38:17.546Z,59.80
2018-12-19T07:40:45.852Z,59.80
2018-12-19T07:43:13.714Z,59.80
2018-12-19T07:45:41.395Z,59.70
2018-12-19T07:48:08.860Z,59.70
2018-12-19T07:50:36.320Z,59.80
2018-12-19T07:53:03.846Z,59.90
2018-12-19T07:55:33.324Z,59.70
2018-12-19T07:58:00.840Z,59.50
2018-12-19T08:00:28.420Z,59.40
2018-12-19T08:02:55.936Z,59.40
2018-12-19T08:05:26.244Z,59.80
2018-12-19T08:07:52.898Z,59.30
2018-12-19T08:10:20.403Z,59.20
2018-12-19T08:12:47.916Z,59.30
2018-12-19T08:15:15.423Z,59.70
2018-12-19T08:17:42.925Z,59.70
2018-12-19T08:20:10.667Z,59.40
2018-12-19T08:22:38.235Z,59.10
2018-12-19T08:25:05.820Z,59.40
2018-12-19T08:27:33.273Z,59.10
2018-12-19T08:30:00.747Z,59.10
2018-12-19T08:32:28.205Z,59.10
2018-12-19T08:34:55.670Z,59.40
2018-12-19T08:37:23.166Z,59.30
2018-12-19T08:39:50.666Z,59.20
2018-12-19T08:42:18.126Z,59.60
2018-12-19T08:44:45.738Z,59.00
2018-12-19T08:47:13.587Z,58.90
2018-12-19T08:49:41.051Z,58.90
2018-12-19T08:52:08.851Z,59.30
2018-12-19T08:54:36.389Z,58.80
2018-12-19T08:57:03.851Z,58.70
2018-12-19T08:59:31.425Z,59.40
2018-12-19T09:01:58.901Z,58.50
2018-12-19T09:04:26.480Z,58.40
2018-12-19T09:06:53.944Z,58.30
2018-12-19T09:09:21.421Z,58.90
2018-12-19T09:11:50.091Z,58.90
2018-12-19T09:14:17.933Z,58.50
2018-12-19T09:16:45.424Z,58.40
2018-12-19T09:19:13.021Z,58.30
2018-12-19T09:21:40.502Z,58.20
2018-12-19T09:24:10.441Z,58.10
2018-12-19T09:26:38.107Z,57.70
2018-12-19T09:29:05.654Z,57.60
2018-12-19T09:31:33.854Z,57.70
2018-12-19T09:34:01.443Z,57.80
2018-12-19T09:36:28.926Z,57.90
2018-12-19T09:38:56.516Z,58.60
2018-12-19T09:41:24.037Z,58.00
2018-12-19T09:43:51.536Z,58.20
2018-12-19T09:46:19.138Z,58.00
2018-12-19T09:48:46.717Z,58.70
2018-12-19T09:51:14.235Z,58.30
2018-12-19T09:53:41.753Z,58.20
2018-12-19T09:56:09.472Z,58.30
2018-12-19T09:58:37.037Z,58.30
2018-12-19T10:01:05.442Z,58.40
2018-12-19T10:03:34.101Z,58.50
2018-12-19T10:06:01.564Z,58.50
2018-12-19T10:08:29.061Z,58.50
2018-12-19T10:10:56.551Z,57.80
2018-12-19T10:13:24.011Z,57.80
2018-12-19T10:15:51.585Z,57.70
2018-12-19T10:18:19.195Z,57.70
2018-12-19T10:20:47.426Z,58.10
2018-12-19T10:23:15.786Z,58.00
2018-12-19T10:25:43.348Z,58.40
2018-12-19T10:28:10.818Z,58.20
2018-12-19T10:30:53.121Z,58.30
2018-12-19T10:35:53.650Z,58.40
2018-12-19T10:38:21.251Z,58.50
2018-12-19T10:40:48.806Z,58.50
2018-12-19T10:43:16.586Z,58.70
2018-12-19T10:45:44.125Z,58.60
2018-12-19T10:48:11.592Z,58.60
2018-12-19T10:50:40.027Z,58.60
2018-12-19T10:53:07.567Z,58.70
2018-12-19T10:55:35.034Z,58.80
2018-12-19T10:58:02.520Z,58.90
2018-12-19T11:00:35.756Z,58.70
2018-12-19T11:03:03.475Z,58.60
2018-12-19T11:05:30.957Z,58.40
2018-12-19T11:07:58.444Z,58.50
2018-12-19T11:10:26.968Z,58.60
2018-12-19T11:12:54.453Z,58.50
2018-12-19T11:15:22.201Z,58.30
2018-12-19T11:17:49.675Z,58.60
2018-12-19T11:20:17.207Z,58.60
2018-12-19T11:22:44.657Z,58.60
2018-12-19T11:25:12.213Z,58.50
2018-12-19T11:27:39.700Z,58.60
2018-12-19T11:30:07.714Z,59.10
2018-12-19T11:32:36.106Z,59.50
2018-12-19T11:35:04.181Z,60.40
2018-12-19T11:37:31.644Z,61.70
2018-12-19T11:39:59.116Z,63.40
2018-12-19T11:42:26.590Z,64.60
2018-12-19T11:44:54.200Z,65.10
2018-12-19T11:47:21.759Z,64.80
2018-12-19T11:49:49.234Z,65.00
2018-12-19T11:52:16.754Z,65.20
2018-12-19T11:54:44.361Z,65.40
2018-12-19T11:57:12.171Z,65.10
2018-12-19T11:59:39.808Z,64.90
2018-12-19T12:02:07.290Z,64.70
2018-12-19T12:04:34.769Z,64.90
2018-12-19T12:07:03.016Z,65.40
2018-12-19T12:09:30.511Z,64.20
2018-12-19T12:11:57.999Z,63.40
2018-12-19T12:14:25.457Z,63.40
2018-12-19T12:16:52.947Z,62.70
2018-12-19T12:19:20.602Z,63.40
2018-12-19T12:21:48.117Z,62.60
2018-12-19T12:24:15.580Z,62.20
2018-12-19T12:26:43.193Z,61.70
2018-12-19T12:29:10.665Z,61.50
2018-12-19T12:31:38.182Z,61.40
2018-12-19T12:34:05.659Z,61.00
2018-12-19T12:36:33.163Z,60.90
2018-12-19T12:39:00.643Z,60.50
2018-12-19T12:41:28.943Z,60.20
2018-12-19T12:43:56.601Z,60.00
2018-12-19T12:46:24.070Z,59.60
2018-12-19T12:48:51.713Z,59.50
2018-12-19T12:51:19.183Z,59.30
2018-12-19T12:53:46.662Z,59.30
2018-12-19T12:56:14.195Z,59.00
2018-12-19T12:58:41.803Z,58.80
2018-12-19T13:01:09.282Z,58.70
2018-12-19T13:03:36.889Z,58.70
2018-12-19T13:06:04.390Z,58.60
2018-12-19T13:08:31.991Z,58.60
2018-12-19T13:10:59.448Z,58.60
2018-12-19T13:13:26.965Z,58.40
2018-12-19T13:15:54.434Z,58.30
2018-12-19T13:18:21.910Z,58.30
2018-12-19T13:20:49.398Z,58.00
2018-12-19T13:23:17.006Z,58.00
2018-12-19T13:25:44.490Z,57.90
2018-12-19T13:28:12.002Z,57.80
2018-12-19T13:30:39.534Z,57.70
2018-12-19T13:33:07.092Z,58.40
2018-12-19T13:35:34.676Z,57.50
2018-12-19T13:38:02.181Z,57.10
2018-12-19T13:40:29.662Z,57.40
2018-12-19T13:42:57.244Z,57.50
2018-12-19T13:45:24.744Z,57.50
2018-12-19T13:47:52.410Z,57.40
2018-12-19T13:50:19.877Z,57.20
2018-12-19T13:52:47.342Z,56.80
2018-12-19T13:55:14.890Z,56.90
2018-12-19T13:57:42.359Z,56.90
2018-12-19T14:00:10.251Z,57.10
2018-12-19T14:02:37.846Z,57.00
2018-12-19T14:05:05.425Z,56.90
2018-12-19T14:07:32.904Z,56.90
2018-12-19T14:10:00.449Z,57.00
2018-12-19T14:12:27.909Z,57.00
2018-12-19T14:14:55.449Z,57.10
2018-12-19T14:17:22.985Z,57.00
2018-12-19T14:19:50.490Z,56.90
2018-12-19T14:22:18.045Z,56.80
2018-12-19T14:24:45.614Z,56.90
2018-12-19T14:27:13.090Z,56.90
2018-12-19T14:29:40.660Z,56.70
2018-12-19T14:32:08.122Z,56.70
2018-12-19T14:34:35.739Z,56.30
2018-12-19T14:37:03.260Z,56.90
2018-12-19T14:39:30.858Z,56.30
2018-12-19T14:41:58.316Z,56.40
2018-12-19T14:44:25.802Z,56.70
2018-12-19T14:46:53.333Z,56.90
2018-12-19T14:49:20.854Z,56.90
2018-12-19T14:51:48.451Z,57.20
2018-12-19T14:54:15.959Z,57.10
2018-12-19T14:56:43.435Z,56.90
2018-12-19T14:59:11.073Z,56.80
2018-12-19T15:01:38.582Z,56.90
2018-12-19T15:04:06.096Z,57.00
2018-12-19T15:06:33.634Z,56.90
2018-12-19T15:09:01.449Z,56.90
2018-12-19T15:11:28.931Z,57.00
2018-12-19T15:13:56.551Z,57.10
2018-12-19T15:16:24.018Z,57.20
2018-12-19T15:18:51.544Z,57.40
2018-12-19T15:21:19.071Z,57.50
2018-12-19T15:23:46.712Z,57.50
2018-12-19T15:26:14.283Z,57.70
2018-12-19T15:28:41.766Z,57.80
2018-12-19T15:31:09.255Z,57.80
2018-12-19T15:33:36.760Z,57.90
2018-12-19T15:36:04.567Z,57.70
2018-12-19T15:38:32.038Z,57.60
2018-12-19T15:40:59.529Z,57.60
2018-12-19T15:43:26.996Z,57.60
2018-12-19T15:45:54.523Z,57.60
2018-12-19T15:48:21.986Z,57.50
2018-12-19T15:50:49.531Z,57.50
2018-12-19T15:53:16.986Z,57.80
2018-12-19T15:55:44.515Z,57.70
2018-12-19T15:58:12.030Z,57.60
2018-12-19T16:00:39.646Z,57.70
2018-12-19T16:03:07.201Z,57.60
2018-12-19T16:05:35.191Z,57.70
2018-12-19T16:08:02.649Z,57.70
2018-12-19T16:10:30.149Z,57.80
2018-12-19T16:12:57.698Z,58.40
2018-12-19T16:15:25.182Z,57.90
2018-12-19T16:17:52.741Z,57.40
2018-12-19T16:20:20.272Z,57.90
2018-12-19T16:22:47.743Z,57.90
2018-12-19T16:25:15.215Z,57.90
2018-12-19T16:27:42.760Z,58.10
2018-12-19T16:30:10.353Z,58.10
2018-12-19T16:32:37.914Z,58.30
2018-12-19T16:35:05.643Z,58.10
2018-12-19T16:37:33.186Z,58.00
2018-12-19T16:40:00.683Z,58.00
2018-12-19T16:42:28.161Z,58.20
2018-12-19T16:44:55.621Z,58.40
2018-12-19T16:47:23.086Z,58.20
2018-12-19T16:49:50.626Z,58.20
2018-12-19T16:52:18.086Z,57.80
2018-12-19T16:54:45.643Z,57.70
2018-12-19T16:57:13.202Z,57.90
2018-12-19T16:59:40.669Z,58.00
2018-12-19T17:02:08.170Z,58.40
2018-12-19T17:04:36.014Z,58.20
2018-12-19T17:07:03.612Z,58.20
2018-12-19T17:09:31.070Z,58.30
2018-12-19T17:11:58.626Z,58.50
2018-12-19T17:14:26.107Z,58.60
2018-12-19T17:16:53.706Z,58.60
2018-12-19T17:19:21.168Z,59.50
2018-12-19T17:21:48.775Z,59.20
2018-12-19T17:24:16.300Z,59.30
2018-12-19T17:26:43.786Z,59.50
2018-12-19T17:29:11.336Z,59.70
2018-12-19T17:31:38.842Z,59.90
2018-12-19T17:34:06.326Z,59.80
2018-12-19T17:36:33.827Z,59.80
2018-12-19T17:39:01.282Z,59.80
2018-12-19T17:41:28.763Z,60.00
2018-12-19T17:43:56.298Z,59.90
2018-12-19T17:46:23.895Z,59.90
2018-12-19T17:48:51.407Z,59.90
2018-12-19T17:51:19.043Z,59.70
2018-12-19T17:53:46.654Z,59.90
2018-12-19T17:56:14.227Z,59.70
2018-12-19T17:58:41.742Z,59.90
2018-12-19T18:01:09.284Z,59.90
2018-12-19T18:03:36.842Z,59.90
2018-12-19T18:06:04.410Z,59.90
2018-12-19T18:08:31.898Z,59.90
2018-12-19T18:10:59.367Z,60.00
2018-12-19T18:13:26.925Z,60.10
2018-12-19T18:15:54.525Z,60.30
2018-12-19T18:18:22.041Z,60.10
2018-12-19T18:20:49.506Z,60.20
2018-12-19T18:23:17.012Z,60.10
2018-12-19T18:25:44.501Z,60.20
2018-12-19T18:28:12.084Z,60.30
2018-12-19T18:30:39.655Z,60.20
2018-12-19T18:33:07.166Z,60.40
2018-12-19T18:35:34.678Z,60.20
2018-12-19T18:38:02.249Z,60.00
2018-12-19T18:40:29.706Z,60.10
2018-12-19T18:42:57.186Z,59.80
2018-12-19T18:45:25.028Z,59.90
2018-12-19T18:47:52.699Z,59.80
2018-12-19T18:50:20.206Z,59.90
2018-12-19T18:52:47.774Z,60.10
2018-12-19T18:55:15.263Z,60.00
2018-12-19T18:57:42.859Z,60.00
2018-12-19T19:00:10.511Z,60.40
2018-12-19T19:02:38.112Z,60.40
2018-12-19T19:05:05.754Z,60.30
2018-12-19T19:07:33.255Z,60.30
2018-12-19T19:10:00.916Z,60.40
2018-12-19T19:12:28.462Z,60.50
2018-12-19T19:14:55.951Z,60.40
2018-12-19T19:17:23.418Z,60.80
2018-12-19T19:19:50.969Z,60.60
2018-12-19T19:22:18.498Z,60.60
2018-12-19T19:24:45.972Z,61.30
2018-12-19T19:27:13.510Z,61.10
2018-12-19T19:29:41.123Z,61.10
2018-12-19T19:32:08.576Z,62.60
2018-12-19T19:34:36.053Z,62.80
2018-12-19T19:37:03.507Z,62.60
2018-12-19T19:39:31.050Z,62.80
2018-12-19T19:41:58.549Z,62.70
2018-12-19T19:44:26.151Z,62.60
2018-12-19T19:46:53.708Z,62.70
2018-12-19T19:49:21.875Z,61.60
2018-12-19T19:51:49.342Z,61.80
2018-12-19T19:54:16.819Z,61.50
2018-12-19T19:56:44.326Z,61.40
2018-12-19T19:59:11.826Z,62.00
2018-12-19T20:01:39.405Z,61.20
2018-12-19T20:04:06.991Z,61.20
2018-12-19T20:06:34.446Z,61.50
2018-12-19T20:09:01.957Z,61.60
2018-12-19T20:11:29.437Z,61.40
2018-12-19T20:13:57.002Z,62.40
2018-12-19T20:16:24.603Z,62.50
2018-12-19T20:18:52.281Z,62.70
2018-12-19T20:21:19.753Z,62.50
2018-12-19T20:23:47.266Z,62.30
2018-12-19T20:26:14.779Z,62.70
2018-12-19T20:28:42.369Z,62.50
2018-12-19T20:31:09.967Z,62.60
2018-12-19T20:33:37.433Z,63.00
2018-12-19T20:36:04.896Z,62.80
2018-12-19T20:38:32.370Z,62.70
2018-12-19T20:41:00.073Z,62.60
2018-12-19T20:43:27.546Z,62.50
2018-12-19T20:45:55.194Z,62.60
2018-12-19T20:48:22.703Z,62.90
2018-12-19T20:50:50.201Z,62.80
2018-12-19T20:53:17.900Z,63.00
2018-12-19T20:55:45.546Z,63.10
2018-12-19T20:58:13.118Z,63.20
2018-12-19T21:00:40.902Z,63.20
2018-12-19T21:03:08.358Z,63.10
2018-12-19T21:05:36.045Z,63.10
2018-12-19T21:08:03.534Z,63.10
2018-12-19T21:10:31.120Z,63.30
2018-12-19T21:12:58.673Z,63.40
2018-12-19T21:15:26.164Z,63.40
2018-12-19T21:21:02.210Z,63.50
2018-12-19T21:23:29.695Z,63.70
2018-12-19T21:25:57.178Z,63.60
2018-12-19T21:28:24.674Z,63.40
2018-12-19T21:30:52.258Z,63.40
2018-12-19T21:33:19.757Z,63.50
2018-12-19T21:35:47.378Z,63.70
2018-12-19T21:38:14.838Z,63.70
2018-12-19T21:40:42.542Z,64.50
2018-12-19T21:43:10.150Z,64.00
2018-12-19T21:45:37.732Z,64.20
2018-12-19T21:48:05.272Z,64.60
2018-12-19T21:50:32.856Z,65.00
2018-12-19T21:53:00.413Z,65.10
2018-12-19T21:55:33.894Z,65.40
2018-12-19T21:58:01.409Z,65.40
2018-12-19T22:00:30.915Z,65.40
2018-12-19T22:03:00.684Z,65.20
2018-12-19T22:05:28.655Z,65.10
2018-12-19T22:07:56.448Z,65.10
2018-12-19T22:10:24.084Z,64.90
2018-12-19T22:12:52.635Z,65.40
2018-12-19T22:15:20.253Z,65.30
2018-12-19T22:17:47.838Z,65.30
2018-12-19T22:20:15.375Z,65.30
2018-12-19T22:22:43.092Z,65.00
2018-12-19T22:25:10.558Z,65.00
2018-12-19T22:27:38.184Z,64.70
2018-12-19T22:30:06.962Z,65.00
2018-12-19T22:32:34.510Z,65.00
2018-12-19T22:35:02.193Z,65.00
2018-12-19T22:37:29.807Z,65.00
2018-12-19T22:39:57.341Z,65.00
2018-12-19T22:42:25.099Z,65.50
2018-12-19T22:44:52.873Z,65.20
2018-12-19T22:47:21.688Z,65.50
2018-12-19T22:49:49.474Z,65.50
2018-12-19T22:52:17.324Z,65.80
2018-12-19T22:54:44.916Z,65.00
2018-12-19T22:57:12.478Z,65.00
2018-12-19T22:59:40.182Z,65.00
2018-12-19T23:02:13.419Z,63.80
2018-12-19T23:04:40.906Z,63.80
2018-12-19T23:07:08.539Z,63.70
2018-12-19T23:09:36.135Z,63.60
2018-12-19T23:12:03.827Z,63.80
2018-12-19T23:14:31.750Z,63.70
2018-12-19T23:17:01.404Z,63.70
2018-12-19T23:19:28.969Z,64.00
2018-12-19T23:21:56.583Z,63.80
2018-12-19T23:24:24.494Z,63.90
2018-12-19T23:26:57.887Z,63.80
2018-12-19T23:29:25.494Z,64.40
2018-12-19T23:31:53.360Z,64.30
2018-12-19T23:34:20.972Z,64.50
2018-12-19T23:36:48.527Z,66.30
2018-12-19T23:39:16.167Z,65.20
2018-12-19T23:41:43.848Z,65.30
2018-12-19T23:44:13.571Z,64.60
2018-12-19T23:46:41.259Z,65.20
2018-12-19T23:49:08.833Z,65.30
2018-12-19T23:51:36.435Z,65.20
2018-12-19T23:54:04.176Z,66.80
2018-12-19T23:56:32.165Z,66.60
2018-12-19T23:59:00.231Z,66.80
